Time;durP1;ratioP1;P1;durP2;ratioP2;P2;SDS_P1;SDS_P2;PMS_P1;PMS_P2;Temp;Humidity;BMP_temperature;BMP_pressure;BME280_temperature;BME280_humidity;BME280_pressure;Samples;Min_cycle;Max_cycle;Signal;HPM_P1;HPM_P2
2021/07/10 00:01:33;;;;;;;7.47;5.00;;;;;;;22.05;52.94;100262.84;5089015;28;20047;-24
2021/07/10 00:03:58;;;;;;;9.73;5.30;;;;;;;22.04;53.35;100266.66;5088587;28;20129;-24
2021/07/10 00:06:24;;;;;;;9.25;5.38;;;;;;;22.11;52.78;100251.91;5088999;28;20929;-24
2021/07/10 00:08:49;;;;;;;8.93;5.43;;;;;;;22.18;53.32;100253.16;5088736;28;20031;-24
2021/07/10 00:11:15;;;;;;;12.13;6.13;;;;;;;21.96;53.86;100250.19;5070761;28;20032;-24
2021/07/10 00:13:40;;;;;;;10.38;5.50;;;;;;;22.17;53.70;100257.00;5088137;28;20499;-24
2021/07/10 00:16:05;;;;;;;10.15;6.35;;;;;;;21.46;56.05;100255.91;5088329;28;20032;-24
2021/07/10 00:18:31;;;;;;;8.98;5.20;;;;;;;20.93;57.20;100239.56;5088238;28;20028;-24
2021/07/10 00:20:57;;;;;;;9.25;6.22;;;;;;;21.56;55.69;100252.28;5088606;28;20024;-23
2021/07/10 00:23:23;;;;;;;10.80;5.78;;;;;;;21.97;54.75;100247.19;5088515;28;20032;-24
2021/07/10 00:25:48;;;;;;;10.13;5.80;;;;;;;22.01;54.12;100253.66;5088090;28;20024;-23
2021/07/10 00:28:14;;;;;;;10.73;6.10;;;;;;;22.14;53.54;100240.47;5088364;28;20415;-24
2021/07/10 00:30:39;;;;;;;11.40;7.18;;;;;;;22.04;53.97;100244.94;5088390;28;20491;-24
2021/07/10 00:33:05;;;;;;;14.98;6.88;;;;;;;22.15;52.95;100248.34;5088431;28;20028;-24
2021/07/10 00:35:30;;;;;;;11.43;6.35;;;;;;;22.05;53.00;100243.84;5088165;28;20039;-24
2021/07/10 00:37:56;;;;;;;11.57;6.38;;;;;;;21.80;53.90;100236.81;5087947;28;20512;-23
2021/07/10 00:40:22;;;;;;;10.65;6.43;;;;;;;21.13;56.21;100227.72;5088142;28;20028;-24
2021/07/10 00:42:47;;;;;;;10.30;6.75;;;;;;;20.65;57.14;100207.50;5088221;28;20043;-24
2021/07/10 00:45:14;;;;;;;10.95;6.60;;;;;;;20.92;57.44;100227.88;5088164;28;20032;-24
2021/07/10 00:47:39;;;;;;;9.95;5.95;;;;;;;20.56;58.98;100216.50;5088002;28;20028;-24
2021/07/10 00:50:17;;;;;;;10.68;6.68;;;;;;;20.48;59.77;100229.53;5088107;28;20063;-24
2021/07/10 00:52:42;;;;;;;9.20;5.78;;;;;;;20.18;59.77;100213.47;5088031;28;20035;-23
2021/07/10 00:55:08;;;;;;;10.55;6.30;;;;;;;21.05;57.37;100226.44;5088114;28;20032;-24
2021/07/10 00:57:34;;;;;;;11.80;6.60;;;;;;;21.33;56.89;100232.13;5070109;28;20103;-24
2021/07/10 01:00:03;;;;;;;12.88;7.28;;;;;;;21.57;55.28;100226.75;5052852;28;20032;-23
2021/07/10 01:02:28;;;;;;;9.60;5.93;;;;;;;20.65;58.76;100223.75;5069957;28;20043;-24
2021/07/10 01:04:54;;;;;;;10.13;6.25;;;;;;;20.87;57.60;100215.19;5087939;28;20027;-24
2021/07/10 01:07:19;;;;;;;9.07;6.78;;;;;;;20.79;58.05;100218.50;5103440;28;20027;-24
2021/07/10 01:09:44;;;;;;;9.50;6.53;;;;;;;20.38;59.44;100213.34;5108328;28;20842;-23
2021/07/10 01:12:10;;;;;;;12.07;6.30;;;;;;;20.45;59.08;100208.44;5107838;28;20092;-24
2021/07/10 01:14:36;;;;;;;8.43;6.13;;;;;;;20.47;58.81;100200.84;5073123;28;20028;-23
2021/07/10 01:17:01;;;;;;;8.95;6.22;;;;;;;21.05;56.79;100189.28;5107692;28;20028;-24
2021/07/10 01:19:27;;;;;;;11.93;6.80;;;;;;;21.43;54.80;100191.38;5108061;28;20552;-24
2021/07/10 01:21:54;;;;;;;8.55;6.32;;;;;;;20.86;56.97;100185.66;5107629;28;20118;-24
2021/07/10 01:24:20;;;;;;;11.00;6.40;;;;;;;20.64;57.64;100191.53;5108062;28;20410;-23
2021/07/10 01:26:45;;;;;;;9.45;6.82;;;;;;;21.28;56.30;100190.41;5108137;28;20261;-24
2021/07/10 01:29:11;;;;;;;9.93;7.03;;;;;;;21.59;55.47;100186.56;5107312;28;20023;-24
2021/07/10 01:31:37;;;;;;;12.32;7.28;;;;;;;20.76;57.88;100196.56;5107354;28;20023;-24
2021/07/10 01:34:02;;;;;;;11.43;6.60;;;;;;;20.09;60.24;100180.75;5107675;28;20467;-23
2021/07/10 01:36:28;;;;;;;9.50;5.97;;;;;;;20.09;60.52;100179.97;5107559;28;20030;-24
2021/07/10 01:38:54;;;;;;;11.07;6.95;;;;;;;20.77;58.22;100193.59;5089318;28;20031;-24
2021/07/10 01:41:19;;;;;;;12.68;7.03;;;;;;;20.61;58.02;100181.25;5107730;28;20023;-24
2021/07/10 01:43:45;;;;;;;9.70;6.65;;;;;;;20.78;57.20;100173.53;5107420;28;20028;-24
2021/07/10 01:46:10;;;;;;;10.55;7.35;;;;;;;20.01;59.42;100160.50;5107476;28;20032;-24
2021/07/10 01:48:36;;;;;;;11.13;7.40;;;;;;;20.81;57.26;100153.97;5108135;28;20023;-24
2021/07/10 01:51:01;;;;;;;13.65;7.55;;;;;;;20.83;56.89;100154.50;5107903;28;20024;-24
2021/07/10 01:53:27;;;;;;;12.55;7.15;;;;;;;20.95;56.56;100175.03;5107570;28;20028;-24
2021/07/10 01:55:52;;;;;;;13.20;6.93;;;;;;;20.17;59.08;100184.78;5107445;28;20411;-24
2021/07/10 01:58:18;;;;;;;10.10;6.30;;;;;;;19.21;62.32;100165.94;5107382;28;20039;-24
2021/07/10 02:00:44;;;;;;;9.80;5.95;;;;;;;19.21;62.29;100164.03;5107688;28;20028;-24
2021/07/10 02:03:13;;;;;;;9.65;6.30;;;;;;;19.39;61.76;100167.22;5107619;28;20042;-24
2021/07/10 02:05:38;;;;;;;7.68;6.30;;;;;;;19.73;60.69;100170.09;5107441;28;20096;-23
2021/07/10 02:08:04;;;;;;;8.45;6.45;;;;;;;20.05;60.50;100166.16;5089139;28;20065;-24
2021/07/10 02:10:31;;;;;;;9.85;6.45;;;;;;;19.77;60.23;100151.44;5107589;28;20028;-24
2021/07/10 02:13:06;;;;;;;9.68;6.97;;;;;;;20.11;59.68;100169.66;5093323;28;20094;-23
2021/07/10 02:15:31;;;;;;;12.23;7.72;;;;;;;20.34;58.87;100171.66;5086530;28;20074;-24
2021/07/10 02:17:57;;;;;;;9.88;7.47;;;;;;;20.26;59.54;100175.78;5086387;28;20067;-24
2021/07/10 02:20:25;;;;;;;10.63;7.43;;;;;;;20.07;59.99;100174.81;5086984;28;20492;-24
2021/07/10 02:22:50;;;;;;;11.73;7.93;;;;;;;20.26;59.45;100172.25;5086646;28;20040;-24
2021/07/10 02:25:17;;;;;;;11.23;7.70;;;;;;;19.85;60.49;100172.50;5086914;28;20393;-23
2021/07/10 02:27:42;;;;;;;12.45;7.90;;;;;;;20.19;59.35;100175.28;5086502;28;20082;-23
2021/07/10 02:30:10;;;;;;;11.15;8.07;;;;;;;19.86;60.36;100174.13;5086827;28;20024;-24
2021/07/10 02:32:35;;;;;;;10.35;8.25;;;;;;;20.03;59.50;100155.63;5086695;28;20107;-24
2021/07/10 02:35:01;;;;;;;10.98;7.80;;;;;;;20.18;59.52;100162.81;5087219;28;20114;-23
2021/07/10 02:37:28;;;;;;;12.75;8.95;;;;;;;20.24;59.41;100158.19;5086652;28;20062;-23
2021/07/10 02:39:53;;;;;;;19.95;8.88;;;;;;;19.79;60.91;100163.56;5086665;28;20078;-24
2021/07/10 02:42:19;;;;;;;10.40;8.68;;;;;;;19.90;61.05;100167.06;5089668;28;20036;-24
2021/07/10 02:44:44;;;;;;;11.68;8.07;;;;;;;19.72;61.63;100151.47;5090426;28;20083;-24
2021/07/10 02:47:10;;;;;;;12.40;9.18;;;;;;;19.97;60.69;100164.84;5090529;28;20035;-23
2021/07/10 02:49:35;;;;;;;13.82;9.38;;;;;;;19.74;61.52;100160.91;5090247;28;20027;-23
2021/07/10 02:52:01;;;;;;;13.10;9.27;;;;;;;19.90;61.15;100158.94;5090266;28;20039;-24
2021/07/10 02:54:26;;;;;;;13.70;9.25;;;;;;;20.03;61.10;100168.34;5090456;28;20028;-24
2021/07/10 02:56:52;;;;;;;13.65;9.45;;;;;;;20.12;60.37;100153.13;5090289;28;20043;-23
2021/07/10 02:59:17;;;;;;;13.45;9.18;;;;;;;20.11;60.72;100165.06;5090397;28;20082;-23
2021/07/10 03:01:43;;;;;;;11.63;9.38;;;;;;;20.16;60.89;100166.91;5090080;28;20541;-24
2021/07/10 03:04:08;;;;;;;15.55;8.43;;;;;;;19.90;60.82;100174.34;5090094;28;20036;-23
2021/07/10 03:06:34;;;;;;;10.27;8.15;;;;;;;19.85;61.09;100172.50;5090025;28;20054;-24
2021/07/10 03:08:59;;;;;;;15.73;8.70;;;;;;;19.83;61.67;100174.66;5090275;28;20039;-24
2021/07/10 03:11:25;;;;;;;14.13;8.88;;;;;;;19.52;61.58;100163.94;5090230;28;20498;-24
2021/07/10 03:13:50;;;;;;;10.80;8.35;;;;;;;19.54;61.56;100158.25;5089491;28;20059;-24
2021/07/10 03:16:15;;;;;;;12.40;8.00;;;;;;;19.64;61.53;100158.22;5090262;28;20050;-24
2021/07/10 03:18:41;;;;;;;12.85;7.97;;;;;;;19.86;60.58;100163.31;5089739;28;20089;-24
2021/07/10 03:21:06;;;;;;;12.38;7.88;;;;;;;19.72;60.73;100167.69;5089666;28;20034;-23
2021/07/10 03:23:32;;;;;;;9.40;7.22;;;;;;;19.38;61.36;100168.31;5089936;28;20028;-23
2021/07/10 03:25:57;;;;;;;10.70;6.82;;;;;;;19.18;61.51;100148.34;5089488;28;20092;-23
2021/07/10 03:28:23;;;;;;;16.67;8.18;;;;;;;19.17;62.88;100162.16;5089536;28;20020;-24
2021/07/10 03:30:52;;;;;;;9.38;7.07;;;;;;;18.98;63.25;100159.19;5090025;28;20535;-24
2021/07/10 03:33:18;;;;;;;9.63;7.85;;;;;;;19.03;63.42;100142.97;5089431;28;20040;-24
2021/07/10 03:35:43;;;;;;;14.15;7.65;;;;;;;19.05;63.87;100157.03;5089357;28;20111;-24
2021/07/10 03:38:09;;;;;;;11.65;7.60;;;;;;;19.22;63.15;100175.63;5071502;28;20038;-24
2021/07/10 03:40:34;;;;;;;14.23;7.80;;;;;;;19.74;61.67;100181.75;5089474;28;20031;-24
2021/07/10 03:43:00;;;;;;;13.40;7.32;;;;;;;20.10;60.38;100176.94;5088273;28;20035;-23
2021/07/10 03:45:25;;;;;;;9.10;7.07;;;;;;;20.24;59.29;100187.97;5088973;28;20031;-23
2021/07/10 03:47:51;;;;;;;9.90;7.30;;;;;;;20.14;59.19;100166.38;5069749;28;20035;-24
2021/07/10 03:50:17;;;;;;;8.82;7.05;;;;;;;19.97;60.81;100170.25;5089286;28;20039;-23
2021/07/10 03:52:43;;;;;;;11.05;7.18;;;;;;;19.97;60.56;100175.69;5088473;28;20035;-24
2021/07/10 03:55:11;;;;;;;9.32;6.53;;;;;;;20.11;59.82;100164.25;5089527;28;20035;-24
2021/07/10 03:57:36;;;;;;;;;;;;;;;20.37;58.59;100184.66;5089553;28;20856;-24
2021/07/10 04:00:05;;;;;;;8.30;6.15;;;;;;;20.33;57.75;100169.22;5088833;28;19920;-24
2021/07/10 04:02:30;;;;;;;9.98;6.30;;;;;;;20.23;58.69;100175.53;5089212;28;20067;-24
2021/07/10 04:04:55;;;;;;;8.55;6.45;;;;;;;20.21;58.71;100164.19;5088902;28;20825;-24
2021/07/10 04:07:21;;;;;;;11.60;6.35;;;;;;;20.41;58.28;100155.91;5088843;28;20024;-24
2021/07/10 04:09:47;;;;;;;8.93;5.60;;;;;;;20.27;58.75;100154.94;5088557;28;20036;-23
2021/07/10 04:12:12;;;;;;;9.93;5.88;;;;;;;20.33;59.71;100158.41;5088476;28;20024;-24
2021/07/10 04:14:38;;;;;;;10.80;6.03;;;;;;;20.61;58.24;100156.88;5088597;28;20046;-24
2021/07/10 04:17:04;;;;;;;9.43;7.25;;;;;;;20.63;58.41;100149.28;5088823;28;20028;-24
2021/07/10 04:19:29;;;;;;;13.65;7.88;;;;;;;20.57;58.50;100142.25;5088639;28;20016;-24
2021/07/10 04:21:55;;;;;;;10.00;7.68;;;;;;;20.79;58.38;100148.03;5088624;28;20420;-23
2021/07/10 04:24:20;;;;;;;8.95;7.65;;;;;;;20.82;58.27;100141.22;5088998;28;20024;-24
2021/07/10 04:26:46;;;;;;;12.35;7.97;;;;;;;21.21;57.51;100140.31;5088352;28;20032;-24
2021/07/10 04:29:11;;;;;;;13.70;9.27;;;;;;;21.11;57.81;100126.88;5088484;28;20448;-24
2021/07/10 04:31:37;;;;;;;12.43;8.55;;;;;;;21.23;58.35;100147.06;5088437;28;20060;-23
2021/07/10 04:34:02;;;;;;;11.65;8.88;;;;;;;21.37;57.89;100141.78;5088427;28;20410;-23
2021/07/10 04:36:28;;;;;;;10.18;8.77;;;;;;;21.35;58.10;100148.56;5088652;28;20047;-24
2021/07/10 04:38:53;;;;;;;13.93;9.50;;;;;;;21.31;57.62;100139.38;5088597;28;20032;-24
2021/07/10 04:41:19;;;;;;;16.25;8.98;;;;;;;21.11;58.85;100138.53;5088227;28;20043;-24
2021/07/10 04:43:44;;;;;;;11.80;9.18;;;;;;;20.89;59.32;100135.50;5088386;28;20044;-23
2021/07/10 04:46:11;;;;;;;13.02;8.82;;;;;;;20.99;59.98;100135.41;5088117;28;20115;-24
2021/07/10 04:48:37;;;;;;;12.05;8.75;;;;;;;20.78;60.55;100132.06;5070034;28;20061;-24
2021/07/10 04:51:02;;;;;;;11.88;8.85;;;;;;;21.27;58.52;100139.97;5088039;28;20036;-24
2021/07/10 04:53:27;;;;;;;12.20;8.95;;;;;;;21.43;59.43;100134.38;5088182;28;20514;-24
2021/07/10 04:55:53;;;;;;;10.95;8.32;;;;;;;21.50;56.82;100113.16;5087642;28;20032;-24
2021/07/10 04:58:18;;;;;;;12.38;8.70;;;;;;;21.55;57.15;100118.50;5088178;28;20016;-23
2021/07/10 05:00:44;;;;;;;13.02;8.95;;;;;;;21.89;56.85;100133.81;5088060;28;20040;-23
2021/07/10 05:03:10;;;;;;;13.45;8.40;;;;;;;22.07;56.10;100137.63;5087755;28;20036;-23
2021/07/10 05:05:35;;;;;;;12.20;8.20;;;;;;;22.42;55.10;100139.03;5087799;28;20028;-23
2021/07/10 05:08:02;;;;;;;11.20;8.27;;;;;;;22.17;55.09;100137.50;5087782;28;20503;-23
2021/07/10 05:10:27;;;;;;;8.95;7.30;;;;;;;22.27;54.96;100141.97;5087603;28;20028;-24
2021/07/10 05:12:53;;;;;;;11.07;8.75;;;;;;;22.44;56.65;100155.84;5087524;28;20055;-23
2021/07/10 05:15:19;;;;;;;12.65;8.35;;;;;;;22.69;55.70;100153.81;5087836;28;20040;-23
2021/07/10 05:17:44;;;;;;;13.75;8.00;;;;;;;22.85;54.45;100135.34;5087602;28;20039;-23
2021/07/10 05:20:11;;;;;;;12.00;7.63;;;;;;;23.12;53.37;100158.25;5087595;28;20419;-23
2021/07/10 05:22:36;;;;;;;12.90;7.32;;;;;;;23.23;53.33;100173.28;5087450;28;20066;-23
2021/07/10 05:25:03;;;;;;;10.52;7.20;;;;;;;22.67;54.87;100161.47;5087530;28;20061;-24
2021/07/10 05:27:29;;;;;;;9.25;7.30;;;;;;;22.21;57.33;100165.69;5087703;28;20046;-24
2021/07/10 05:29:54;;;;;;;9.82;6.90;;;;;;;22.50;55.42;100167.44;5069075;28;20024;-24
2021/07/10 05:32:19;;;;;;;9.02;7.00;;;;;;;22.24;55.65;100164.31;5087738;28;20549;-24
2021/07/10 05:34:45;;;;;;;8.70;6.90;;;;;;;22.18;55.64;100151.88;5087364;28;20089;-23
2021/07/10 05:37:10;;;;;;;10.10;6.50;;;;;;;22.07;55.72;100154.75;5087381;28;20050;-23
2021/07/10 05:39:38;;;;;;;13.45;7.93;;;;;;;22.22;56.60;100158.34;5087445;28;20032;-23
2021/07/10 05:42:04;;;;;;;;;;;;;;;22.45;56.31;100173.78;5087898;28;20123;-23
2021/07/10 05:44:29;;;;;;;10.88;7.60;;;;;;;22.19;57.28;100162.44;5069394;28;20022;-24
2021/07/10 05:46:55;;;;;;;10.82;7.65;;;;;;;22.66;56.19;100176.97;5087179;28;20031;-23
2021/07/10 05:49:21;;;;;;;13.00;7.78;;;;;;;22.75;56.02;100182.53;5087048;28;20492;-24
2021/07/10 05:51:47;;;;;;;10.38;7.55;;;;;;;22.77;55.88;100171.34;5086889;28;20114;-24
2021/07/10 05:54:12;;;;;;;10.45;7.28;;;;;;;22.85;56.11;100173.41;5087031;28;20036;-23
2021/07/10 05:56:38;;;;;;;11.02;7.30;;;;;;;23.13;54.85;100185.19;5087226;28;20073;-23
2021/07/10 05:59:03;;;;;;;13.07;7.13;;;;;;;23.09;53.61;100173.28;5087513;28;20032;-24
2021/07/10 06:01:29;;;;;;;10.82;7.28;;;;;;;23.22;54.58;100177.91;5087013;28;20036;-23
2021/07/10 06:03:54;;;;;;;10.88;7.20;;;;;;;23.31;54.59;100179.94;5087241;28;20032;-24
2021/07/10 06:06:20;;;;;;;10.88;8.48;;;;;;;23.19;54.65;100172.25;5087036;28;20036;-23
2021/07/10 06:08:45;;;;;;;8.63;7.32;;;;;;;23.18;55.30;100176.91;5086932;28;20104;-24
2021/07/10 06:11:11;;;;;;;10.23;7.70;;;;;;;23.30;53.71;100162.03;5086999;28;20032;-23
2021/07/10 06:13:37;;;;;;;10.07;7.63;;;;;;;23.63;53.51;100177.13;5086299;28;20064;-23
2021/07/10 06:16:03;;;;;;;10.80;7.65;;;;;;;23.57;52.89;100151.13;5087926;28;20663;-24
2021/07/10 06:18:28;;;;;;;13.40;7.93;;;;;;;23.56;53.31;100176.72;5091149;28;20055;-23
2021/07/10 06:20:54;;;;;;;11.18;7.95;;;;;;;23.77;52.75;100170.91;5091114;28;20054;-24
2021/07/10 06:23:21;;;;;;;12.10;8.02;;;;;;;24.03;52.68;100166.50;5091105;28;20062;-23
2021/07/10 06:25:47;;;;;;;10.52;7.60;;;;;;;24.41;52.05;100163.44;5072687;28;20081;-24
2021/07/10 06:28:12;;;;;;;11.35;7.97;;;;;;;24.47;51.87;100173.09;5090945;28;20199;-24
2021/07/10 06:30:38;;;;;;;13.45;7.65;;;;;;;24.11;51.67;100142.38;5090801;28;20472;-23
2021/07/10 06:33:03;;;;;;;9.95;7.47;;;;;;;24.64;51.24;100167.03;5090826;28;20043;-24
2021/07/10 06:35:29;;;;;;;10.10;7.75;;;;;;;24.74;51.37;100165.94;5090837;28;20032;-24
2021/07/10 06:37:54;;;;;;;12.25;7.18;;;;;;;24.38;51.83;100157.81;5090614;28;20063;-24
2021/07/10 06:40:20;;;;;;;9.70;6.75;;;;;;;24.66;50.63;100164.78;5090791;28;20101;-24
2021/07/10 06:42:46;;;;;;;10.20;7.63;;;;;;;24.56;50.61;100151.41;5090548;28;20396;-24
2021/07/10 06:45:13;;;;;;;65.00;40.25;;;;;;;24.75;50.38;100145.75;5090470;28;20563;-24
2021/07/10 06:47:39;;;;;;;15.82;10.77;;;;;;;24.97;50.70;100160.47;5090421;28;20028;-23
2021/07/10 06:50:05;;;;;;;11.60;7.47;;;;;;;25.08;49.71;100161.81;5090432;28;20035;-24
2021/07/10 06:52:31;;;;;;;12.48;8.70;;;;;;;25.15;49.62;100159.44;5090226;28;20032;-24
2021/07/10 06:54:56;;;;;;;10.35;7.32;;;;;;;25.44;48.07;100145.28;5090387;28;20089;-23
2021/07/10 06:57:22;;;;;;;12.95;7.70;;;;;;;25.46;48.49;100158.63;5090427;28;20403;-24
2021/07/10 06:59:47;;;;;;;11.00;7.70;;;;;;;25.28;49.70;100156.97;5089892;28;20039;-23
2021/07/10 07:02:12;;;;;;;10.18;8.25;;;;;;;25.38;49.68;100157.47;5090387;28;20406;-24
2021/07/10 07:04:39;;;;;;;13.23;8.85;;;;;;;25.49;50.35;100147.06;5090382;28;20032;-24
2021/07/10 07:07:05;;;;;;;12.30;8.35;;;;;;;25.63;49.49;100139.53;5090101;28;20039;-23
2021/07/10 07:09:30;;;;;;;13.68;8.38;;;;;;;25.82;49.29;100155.63;5090256;28;20036;-23
2021/07/10 07:11:56;;;;;;;14.63;8.10;;;;;;;26.37;48.24;100162.44;5089743;28;20043;-24
2021/07/10 07:14:21;;;;;;;11.15;7.43;;;;;;;26.14;47.40;100150.09;5089486;28;20055;-24
2021/07/10 07:16:46;;;;;;;13.18;8.00;;;;;;;26.44;48.12;100143.63;5089842;28;20446;-24
2021/07/10 07:19:12;;;;;;;12.32;8.07;;;;;;;26.58;47.17;100159.91;5091443;28;20067;-24
2021/07/10 07:21:37;;;;;;;8.38;7.47;;;;;;;26.51;47.52;100148.59;5083867;28;20035;-24
2021/07/10 07:24:03;;;;;;;9.93;7.53;;;;;;;26.59;46.97;100155.22;5098320;28;20039;-23
2021/07/10 07:26:29;;;;;;;11.15;7.00;;;;;;;26.77;47.12;100162.28;5094592;28;20052;-24
2021/07/10 07:28:54;;;;;;;11.60;6.97;;;;;;;26.84;46.68;100157.09;5108564;28;20140;-24
2021/07/10 07:31:20;;;;;;;9.38;6.65;;;;;;;27.14;45.75;100156.38;5109638;28;20027;-24
2021/07/10 07:33:45;;;;;;;11.27;7.40;;;;;;;27.11;44.75;100163.28;5109732;28;20085;-24
2021/07/10 07:36:11;;;;;;;9.63;7.00;;;;;;;27.09;46.04;100156.53;5109711;28;20487;-24
2021/07/10 07:38:37;;;;;;;12.93;7.18;;;;;;;27.35;45.23;100160.00;5110235;28;20059;-24
2021/07/10 07:41:04;;;;;;;9.45;6.28;;;;;;;27.45;43.75;100156.09;5109820;28;20039;-24
2021/07/10 07:43:29;;;;;;;8.50;6.20;;;;;;;27.80;42.58;100145.72;5109722;28;20815;-25
2021/07/10 07:45:55;;;;;;;8.70;5.82;;;;;;;27.76;41.42;100141.25;5109444;28;20090;-24
2021/07/10 07:48:20;;;;;;;10.07;6.15;;;;;;;27.39;41.33;100130.03;5109477;28;20031;-24
2021/07/10 07:50:46;;;;;;;8.98;5.90;;;;;;;28.08;41.79;100147.97;5109775;28;20035;-24
2021/07/10 07:53:13;;;;;;;11.07;6.07;;;;;;;27.67;41.28;100154.22;5109571;28;20414;-24
2021/07/10 07:55:39;;;;;;;7.25;5.40;;;;;;;27.59;41.24;100137.47;5108873;28;20055;-24
2021/07/10 07:58:04;;;;;;;8.05;5.05;;;;;;;28.11;40.61;100135.53;5107978;28;20053;-24
2021/07/10 08:00:30;;;;;;;8.68;4.20;;;;;;;28.06;38.20;100131.06;5109003;28;20746;-24
2021/07/10 08:02:55;;;;;;;8.05;4.40;;;;;;;28.08;36.34;100133.47;5108944;28;20053;-24
2021/07/10 08:05:21;;;;;;;7.57;4.10;;;;;;;28.30;36.83;100132.28;5109495;28;20032;-24
2021/07/10 08:07:46;;;;;;;8.48;5.22;;;;;;;28.21;38.41;100129.63;5109310;28;20476;-24
2021/07/10 08:10:13;;;;;;;8.45;6.15;;;;;;;28.54;39.82;100120.63;5111568;28;20031;-23
2021/07/10 08:12:39;;;;;;;7.07;5.22;;;;;;;28.67;40.44;100122.28;5100194;28;20127;-24
2021/07/10 08:15:06;;;;;;;9.43;5.40;;;;;;;28.67;37.66;100111.31;5094270;28;20035;-24
2021/07/10 08:17:32;;;;;;;6.77;4.80;;;;;;;28.74;37.71;100118.97;5091406;28;20479;-24
2021/07/10 08:19:57;;;;;;;7.70;4.05;;;;;;;28.79;36.04;100122.31;5070848;28;20106;-24
2021/07/10 08:22:23;;;;;;;7.45;4.40;;;;;;;28.83;37.28;100116.91;5088799;28;20111;-24
2021/07/10 08:24:48;;;;;;;9.07;4.72;;;;;;;29.27;37.00;100113.69;5088413;28;20046;-24
2021/07/10 08:27:14;;;;;;;7.07;4.57;;;;;;;29.39;37.72;100121.91;5107176;28;20801;-24
2021/07/10 08:29:40;;;;;;;6.68;4.05;;;;;;;29.53;35.42;100111.38;5095608;28;20032;-24
2021/07/10 08:32:06;;;;;;;8.30;4.95;;;;;;;29.31;35.23;100111.84;5108743;28;20019;-24
2021/07/10 08:34:32;;;;;;;8.75;4.30;;;;;;;29.44;34.39;100117.00;5108827;28;20034;-24
2021/07/10 08:37:00;;;;;;;7.78;4.15;;;;;;;29.52;34.19;100118.00;5081821;28;20023;-24
2021/07/10 08:39:25;;;;;;;;;;;;;;;29.59;33.10;100120.19;5108648;28;20039;-24
2021/07/10 08:41:50;;;;;;;10.50;4.27;;;;;;;29.70;34.10;100117.75;5108272;28;20382;-23
2021/07/10 08:44:16;;;;;;;7.18;4.43;;;;;;;29.57;35.16;100112.28;5090379;28;20277;-23
2021/07/10 08:46:41;;;;;;;9.05;4.50;;;;;;;29.52;35.87;100104.25;5073844;28;20734;-23
2021/07/10 08:49:07;;;;;;;8.40;4.47;;;;;;;29.62;34.43;100108.47;5108349;28;20403;-23
2021/07/10 08:51:33;;;;;;;9.30;6.22;;;;;;;28.79;35.99;100097.63;5089925;28;20088;-23
2021/07/10 08:53:59;;;;;;;12.77;7.68;;;;;;;29.10;36.21;100106.44;5088369;28;20034;-24
2021/07/10 08:56:24;;;;;;;11.50;7.70;;;;;;;29.52;35.15;100112.50;5053090;28;20036;-23
2021/07/10 08:58:50;;;;;;;10.60;7.55;;;;;;;29.40;35.60;100104.28;5088064;28;20031;-23
2021/07/10 09:01:15;;;;;;;14.68;8.25;;;;;;;29.42;33.75;100111.03;5069883;28;20511;-23
2021/07/10 09:03:41;;;;;;;13.70;9.30;;;;;;;29.24;33.54;100099.50;5087669;28;20038;-24
2021/07/10 09:06:07;;;;;;;20.42;9.52;;;;;;;29.47;36.47;100096.25;5088289;28;20102;-23
2021/07/10 09:08:33;;;;;;;15.27;8.07;;;;;;;29.74;33.88;100102.19;5088071;28;20040;-24
2021/07/10 09:11:25;;;;;;;9.30;5.93;;;;;;;29.35;36.64;100105.31;5093134;28;20042;-24
2021/07/10 09:13:54;;;;;;;10.23;5.38;;;;;;;29.61;35.84;100080.22;5094130;28;20079;-23
2021/07/10 09:16:25;;;;;;;9.48;4.53;;;;;;;29.53;35.65;100100.38;5096014;28;20032;-24
2021/07/10 09:19:01;;;;;;;12.05;6.05;;;;;;;29.40;35.01;100104.28;5089825;28;20035;-23
2021/07/10 09:21:45;;;;;;;12.48;4.75;;;;;;;29.00;35.62;100108.50;5107700;28;20051;-23
2021/07/10 09:24:34;;;;;;;8.48;4.43;;;;;;;28.82;35.88;100110.63;5107987;28;20028;-24
2021/07/10 09:27:04;;;;;;;8.27;4.15;;;;;;;28.92;35.17;100092.13;5108006;28;20039;-23
2021/07/10 09:29:30;;;;;;;8.55;4.20;;;;;;;29.90;34.58;100092.06;5100235;28;20107;-24
2021/07/10 09:31:56;;;;;;;6.05;4.25;;;;;;;30.73;32.36;100105.31;5087352;28;20492;-24
2021/07/10 09:34:27;;;;;;;7.10;4.10;;;;;;;30.81;32.93;100090.59;5069714;28;20032;-24
2021/07/10 09:37:04;;;;;;;7.25;3.78;;;;;;;30.27;32.97;100086.41;5069540;28;20073;-23
2021/07/10 09:39:31;;;;;;;7.05;3.92;;;;;;;30.60;34.52;100097.13;5087295;28;20089;-23
2021/07/10 09:41:57;;;;;;;7.93;3.72;;;;;;;30.61;32.17;100097.97;5069439;28;20103;-23
2021/07/10 09:44:23;;;;;;;8.88;3.90;;;;;;;30.38;35.33;100084.78;5086899;28;20024;-23
2021/07/10 09:46:48;;;;;;;5.32;3.60;;;;;;;30.23;33.56;100105.56;5087228;28;20719;-23
2021/07/10 09:49:27;;;;;;;6.28;3.92;;;;;;;30.56;32.91;100096.25;5087193;28;20093;-23
2021/07/10 09:52:10;;;;;;;5.95;3.60;;;;;;;30.81;32.80;100085.91;5086097;28;20043;-23
2021/07/10 09:54:45;;;;;;;6.20;4.05;;;;;;;30.93;31.47;100075.97;5087446;28;20909;-24
2021/07/10 09:57:18;;;;;;;6.75;3.72;;;;;;;31.28;32.97;100086.22;5087186;28;20036;-23
2021/07/10 09:59:49;;;;;;;5.75;3.58;;;;;;;31.82;33.01;100085.47;5086910;28;20024;-23
2021/07/10 10:02:21;;;;;;;13.13;4.15;;;;;;;31.61;32.78;100066.53;5086960;28;20424;-23
2021/07/10 10:04:46;;;;;;;7.07;4.18;;;;;;;31.61;30.76;100078.34;5087176;28;20036;-23
2021/07/10 10:07:17;;;;;;;7.60;4.00;;;;;;;31.64;31.22;100074.06;5086631;28;20036;-23
2021/07/10 10:09:43;;;;;;;7.85;4.30;;;;;;;31.77;30.83;100081.06;5068862;28;20024;-23
2021/07/10 10:12:14;;;;;;;12.20;4.80;;;;;;;31.84;30.21;100080.41;5086747;28;20161;-23
2021/07/10 10:14:44;;;;;;;6.45;4.55;;;;;;;32.03;30.94;100072.13;5086985;28;20078;-23
2021/07/10 10:17:10;;;;;;;6.45;3.85;;;;;;;31.99;30.29;100068.50;5087273;28;20119;-23
2021/07/10 10:19:36;;;;;;;20.17;6.82;;;;;;;31.96;32.16;100047.16;5087422;28;20043;-23
2021/07/10 10:22:04;;;;;;;13.65;5.72;;;;;;;31.89;31.78;100047.00;5089476;28;20593;-23
2021/07/10 10:24:30;;;;;;;9.45;3.67;;;;;;;31.93;32.64;100067.16;5087429;28;20451;-23
2021/07/10 10:26:57;;;;;;;7.35;4.13;;;;;;;32.28;32.67;100058.00;5086934;28;20496;-23
2021/07/10 10:29:23;;;;;;;34.83;10.73;;;;;;;32.06;33.11;100051.31;5093124;28;20104;-23
2021/07/10 10:31:48;;;;;;;9.18;3.80;;;;;;;32.11;30.16;100058.50;5091138;28;20055;-23
2021/07/10 10:34:14;;;;;;;5.30;3.90;;;;;;;31.89;31.94;100054.47;5086701;28;20066;-23
2021/07/10 10:36:42;;;;;;;11.05;4.43;;;;;;;31.94;29.69;100056.97;5077365;28;20399;-23
2021/07/10 10:39:10;;;;;;;9.30;3.83;;;;;;;31.80;31.35;100057.47;5096166;28;20028;-23
2021/07/10 10:41:40;;;;;;;6.53;3.80;;;;;;;31.51;30.93;100051.34;5097363;28;20057;-23
2021/07/10 10:44:06;;;;;;;9.13;3.72;;;;;;;32.31;29.78;100048.22;5078638;28;20160;-23
2021/07/10 10:46:52;;;;;;;7.28;3.40;;;;;;;32.58;28.64;100051.88;5077606;28;20483;-23
2021/07/10 10:49:39;;;;;;;13.02;4.35;;;;;;;32.54;28.69;100050.97;5081461;28;20475;-23
2021/07/10 10:52:17;;;;;;;7.30;3.72;;;;;;;33.19;28.79;100059.19;5096203;28;20016;-23
2021/07/10 10:55:12;;;;;;;14.70;4.68;;;;;;;33.00;27.31;100048.22;5095827;28;20095;-23
2021/07/10 10:57:44;;;;;;;6.05;3.33;;;;;;;32.10;28.34;100054.13;5079290;28;20566;-23
2021/07/10 11:00:31;;;;;;;7.78;3.35;;;;;;;31.68;31.45;100044.63;5096952;28;20024;-23
2021/07/10 11:02:58;;;;;;;;;;;;;;;31.88;30.51;100045.41;5100005;28;20028;-23
2021/07/10 11:05:29;;;;;;;6.35;3.45;;;;;;;32.28;33.09;100037.91;5098258;28;20302;-23
2021/07/10 11:08:17;;;;;;;6.30;3.05;;;;;;;32.29;28.10;100034.00;5100772;28;20085;-24
2021/07/10 11:10:43;;;;;;;5.35;3.33;;;;;;;32.51;27.88;100051.69;5099757;28;20547;-23
2021/07/10 11:13:29;;;;;;;4.65;3.17;;;;;;;32.19;28.44;100036.19;5099430;28;20147;-23
2021/07/10 11:16:06;;;;;;;6.93;3.33;;;;;;;32.92;28.42;100047.31;5078927;28;20036;-23
2021/07/10 11:18:50;;;;;;;5.60;3.15;;;;;;;33.03;26.63;100036.41;5095339;28;20129;-23
2021/07/10 11:21:48;;;;;;;7.90;3.00;;;;;;;32.42;24.77;100033.44;5096284;28;20024;-23